Time;durP1;ratioP1;P1;durP2;ratioP2;P2;SDS_P1;SDS_P2;PMS_P1;PMS_P2;Temp;Humidity;BMP_temperature;BMP_pressure;BME280_temperature;BME280_humidity;BME280_pressure;Samples;Min_cycle;Max_cycle;Signal;HPM_P1;HPM_P2
2022/09/05 00:00:51;;;;;;;5.37;3.00;;;20.30;87.80;;;;;;4994688;28;20098;-73
2022/09/05 00:03:23;;;;;;;5.53;2.80;;;20.30;87.70;;;;;;4993961;28;20108;-73
2022/09/05 00:06:05;;;;;;;5.93;2.67;;;20.20;88.30;;;;;;4994257;28;20502;-73
2022/09/05 00:09:07;;;;;;;5.80;3.07;;;20.20;88.80;;;;;;4993720;28;20475;-73
2022/09/05 00:11:59;;;;;;;7.50;3.10;;;20.10;88.20;;;;;;4991420;28;20054;-72
2022/09/05 00:14:41;;;;;;;6.17;2.80;;;20.10;89.50;;;;;;4993919;28;20054;-73
2022/09/05 00:17:40;;;;;;;8.53;2.93;;;20.10;90.10;;;;;;4994454;28;20081;-73
2022/09/05 00:20:22;;;;;;;6.90;3.20;;;20.00;90.10;;;;;;4994767;28;20058;-73
2022/09/05 00:22:54;;;;;;;5.87;3.03;;;20.00;90.10;;;;;;4997801;28;20050;-72
2022/09/05 00:25:50;;;;;;;6.70;3.17;;;20.00;90.10;;;;;;4997836;28;20058;-72
2022/09/05 00:28:56;;;;;;;4.40;2.70;;;20.00;90.40;;;;;;4998297;28;20046;-73
2022/09/05 00:32:04;;;;;;;4.87;3.00;;;19.90;90.60;;;;;;4997756;28;20148;-73
2022/09/05 00:34:52;;;;;;;6.43;3.17;;;19.90;90.50;;;;;;4969669;28;20054;-72
2022/09/05 00:37:38;;;;;;;12.80;3.70;;;19.80;90.60;;;;;;4998170;28;20042;-73
2022/09/05 00:40:18;;;;;;;8.90;3.10;;;19.80;91.40;;;;;;4996886;28;20061;-73
2022/09/05 00:42:46;;;;;;;5.50;3.20;;;19.70;91.00;;;;;;4998298;28;20363;-72
2022/09/05 00:45:23;;;;;;;5.17;3.33;;;19.70;91.10;;;;;;4997480;28;20085;-73
2022/09/05 00:48:04;;;;;;;5.43;3.00;;;19.70;91.20;;;;;;4998041;28;20054;-73
2022/09/05 00:50:59;;;;;;;7.87;3.40;;;19.70;91.50;;;;;;4997442;28;20057;-73
2022/09/05 00:53:50;;;;;;;7.40;3.45;;;19.70;91.70;;;;;;4998146;28;20047;-73
2022/09/05 00:56:40;;;;;;;6.53;3.47;;;19.70;91.60;;;;;;4997608;28;20097;-73
2022/09/05 00:59:53;;;;;;;9.20;3.40;;;19.60;91.80;;;;;;4997242;28;20574;-72
2022/09/05 01:02:21;;;;;;;7.97;3.43;;;19.60;92.20;;;;;;4996832;28;20506;-73
2022/09/05 01:05:15;;;;;;;9.37;3.43;;;19.50;91.90;;;;;;4996823;28;20054;-72
2022/09/05 01:07:48;;;;;;;7.37;3.40;;;19.50;92.30;;;;;;4997883;28;20379;-73
2022/09/05 01:10:32;;;;;;;6.83;3.17;;;19.50;92.40;;;;;;4997101;28;20050;-73
2022/09/05 01:13:34;;;;;;;7.75;3.17;;;19.50;92.60;;;;;;4996990;28;20047;-73
2022/09/05 01:16:42;;;;;;;6.37;3.33;;;19.40;92.70;;;;;;4996702;28;20050;-73
2022/09/05 01:19:26;;;;;;;5.73;3.53;;;19.40;92.90;;;;;;4944200;28;20059;-73
2022/09/05 01:22:17;;;;;;;5.97;3.23;;;19.40;92.70;;;;;;4997073;28;20068;-73
2022/09/05 01:25:01;;;;;;;5.90;3.40;;;19.40;92.80;;;;;;4997348;28;20382;-73
2022/09/05 01:27:45;;;;;;;10.87;3.27;;;19.30;93.00;;;;;;4996764;28;20058;-73
2022/09/05 01:30:20;;;;;;;6.13;3.00;;;19.30;93.40;;;;;;4997518;28;20046;-72
2022/09/05 01:32:57;;;;;;;9.17;3.27;;;19.30;93.10;;;;;;4996247;28;20042;-72
2022/09/05 01:35:50;;;;;;;6.20;3.33;;;19.30;93.10;;;;;;4996576;28;20054;-72
2022/09/05 01:38:33;;;;;;;5.60;3.30;;;19.20;93.60;;;;;;4996516;28;20057;-72
2022/09/05 01:41:27;;;;;;;6.83;3.33;;;19.20;93.70;;;;;;4997137;28;20058;-72
2022/09/05 01:44:18;;;;;;;8.20;3.63;;;19.10;93.60;;;;;;4997173;28;20042;-72
2022/09/05 01:47:21;;;;;;;5.37;3.57;;;19.10;93.90;;;;;;4996389;28;20053;-73
2022/09/05 01:50:09;;;;;;;7.60;3.30;;;19.00;94.10;;;;;;4996236;28;20108;-72
2022/09/05 01:52:52;;;;;;;9.50;3.80;;;19.00;94.40;;;;;;4996844;28;20118;-72
2022/09/05 01:55:24;;;;;;;7.43;4.20;;;18.90;94.40;;;;;;4996249;28;20050;-72
2022/09/05 01:58:01;;;;;;;9.97;3.40;;;18.90;94.50;;;;;;4996679;28;20058;-73
2022/09/05 02:00:52;;;;;;;7.03;3.90;;;18.90;94.70;;;;;;4996102;28;20046;-71
2022/09/05 02:03:33;;;;;;;7.63;4.27;;;18.90;94.80;;;;;;4996773;28;20081;-71
2022/09/05 02:06:12;;;;;;;5.87;3.77;;;18.80;95.10;;;;;;4996093;28;20498;-70
2022/09/05 02:09:11;;;;;;;7.77;3.80;;;18.80;94.90;;;;;;4996443;28;20479;-71
2022/09/05 02:12:00;;;;;;;6.83;3.73;;;18.80;95.30;;;;;;4995852;28;20054;-71
2022/09/05 02:14:36;;;;;;;6.20;3.33;;;18.70;95.90;;;;;;4995845;28;20155;-71
2022/09/05 02:17:29;;;;;;;8.50;3.80;;;18.70;95.40;;;;;;4995846;28;20108;-71
2022/09/05 02:20:05;;;;;;;7.00;3.60;;;18.70;96.20;;;;;;4996274;28;20050;-71
2022/09/05 02:22:49;;;;;;;5.97;3.57;;;18.70;95.80;;;;;;4996387;28;20096;-71
2022/09/05 02:25:24;;;;;;;6.57;4.00;;;18.70;96.00;;;;;;4995706;28;20053;-71
2022/09/05 02:28:10;;;;;;;8.45;3.78;;;18.70;96.10;;;;;;4994505;28;20057;-71
2022/09/05 02:30:43;;;;;;;7.27;4.17;;;18.70;95.90;;;;;;4995390;28;20057;-71
2022/09/05 02:33:28;;;;;;;6.70;3.40;;;18.70;96.00;;;;;;4995788;28;20046;-71
2022/09/05 02:36:28;;;;;;;6.28;3.70;;;18.70;95.90;;;;;;4996004;28;20049;-71
2022/09/05 02:39:01;;;;;;;10.17;4.10;;;18.60;96.30;;;;;;4995410;28;20057;-71
2022/09/05 02:41:32;;;;;;;6.27;4.00;;;18.60;96.20;;;;;;4995893;28;20368;-71
2022/09/05 02:44:14;;;;;;;8.13;4.33;;;18.50;96.30;;;;;;4994497;28;20050;-71
2022/09/05 02:46:45;;;;;;;7.33;4.70;;;18.50;97.00;;;;;;4995270;28;20096;-71
2022/09/05 02:49:30;;;;;;;8.90;4.00;;;18.40;96.70;;;;;;4995237;28;20050;-72
2022/09/05 02:52:09;;;;;;;7.72;4.13;;;18.40;96.90;;;;;;4995208;28;20475;-71
2022/09/05 02:54:46;;;;;;;8.50;4.20;;;18.30;97.00;;;;;;4994210;28;20133;-71
2022/09/05 02:57:26;;;;;;;7.70;4.30;;;18.30;97.70;;;;;;4995039;28;20189;-71
2022/09/05 03:00:10;;;;;;;6.50;4.07;;;18.30;97.50;;;;;;4993805;28;20050;-72
2022/09/05 03:02:57;;;;;;;6.90;3.87;;;18.20;97.80;;;;;;4995150;28;20395;-72
2022/09/05 03:05:38;;;;;;;8.40;3.90;;;18.20;97.60;;;;;;4995173;28;20050;-72
2022/09/05 03:08:06;;;;;;;7.80;4.23;;;18.20;97.90;;;;;;4995396;28;20081;-72
2022/09/05 03:10:50;;;;;;;6.17;3.87;;;18.20;97.80;;;;;;4994987;28;20423;-72
2022/09/05 03:13:54;;;;;;;7.53;3.93;;;18.20;98.40;;;;;;4994730;28;20053;-72
2022/09/05 03:16:47;;;;;;;6.50;4.70;;;18.20;98.60;;;;;;4994028;28;20073;-72
2022/09/05 03:19:37;;;;;;;6.90;4.60;;;18.10;98.60;;;;;;4994670;28;20046;-72
2022/09/05 03:22:35;;;;;;;6.00;4.03;;;18.10;98.50;;;;;;4995695;28;20089;-72
2022/09/05 03:25:07;;;;;;;7.63;4.50;;;18.10;98.80;;;;;;4995318;28;20105;-72
2022/09/05 03:27:54;;;;;;;7.00;4.90;;;18.10;98.50;;;;;;4994514;28;20054;-72
2022/09/05 03:30:21;;;;;;;7.70;4.70;;;18.10;98.60;;;;;;4995009;28;20490;-72
2022/09/05 03:33:20;;;;;;;7.37;4.17;;;18.10;98.80;;;;;;4995145;28;20038;-72
2022/09/05 03:36:10;;;;;;;9.00;4.87;;;18.10;98.90;;;;;;4994058;28;20509;-72
2022/09/05 03:38:48;;;;;;;6.73;4.67;;;18.00;98.90;;;;;;4986377;28;20055;-72
2022/09/05 03:41:45;;;;;;;5.70;4.20;;;18.00;99.40;;;;;;4995038;28;20057;-72
2022/09/05 03:44:37;;;;;;;9.23;4.67;;;18.00;99.20;;;;;;4993304;28;20180;-72
2022/09/05 03:47:28;;;;;;;7.37;4.70;;;18.00;99.40;;;;;;4994182;28;20448;-72
2022/09/05 03:49:53;;;;;;;8.10;4.80;;;18.00;99.60;;;;;;4994124;28;20088;-73
2022/09/05 03:52:45;;;;;;;10.00;4.80;;;17.90;99.40;;;;;;4993527;28;20082;-72
2022/09/05 03:55:41;;;;;;;7.97;4.70;;;17.90;99.90;;;;;;4993972;28;20050;-72
2022/09/05 03:58:33;;;;;;;9.30;5.00;;;17.80;99.90;;;;;;4994102;28;20046;-72
2022/09/05 04:01:16;;;;;;;7.40;4.33;;;17.80;99.90;;;;;;4994362;28;20430;-72
2022/09/05 04:03:58;;;;;;;7.50;4.40;;;17.80;99.90;;;;;;4993986;28;20046;-72
2022/09/05 04:06:39;;;;;;;7.50;4.40;;;17.80;99.90;;;;;;4994576;28;20077;-72
2022/09/05 04:09:38;;;;;;;7.50;4.77;;;17.80;99.90;;;;;;4994042;28;20050;-72
2022/09/05 04:12:32;;;;;;;8.10;4.60;;;17.80;99.90;;;;;;4994481;28;20042;-72
2022/09/05 04:15:21;;;;;;;7.97;4.57;;;17.70;99.90;;;;;;4994741;28;20117;-72
2022/09/05 04:17:54;;;;;;;7.87;4.77;;;17.60;99.90;;;;;;4994381;28;20134;-70
2022/09/05 04:20:35;;;;;;;16.40;5.90;;;17.60;99.90;;;;;;4993785;28;20113;-70
2022/09/05 04:23:31;;;;;;;14.03;4.60;;;17.60;99.90;;;;;;4993804;28;20058;-71
2022/09/05 04:25:57;;;;;;;10.90;4.50;;;17.60;99.90;;;;;;4993836;28;20093;-71
2022/09/05 04:28:35;;;;;;;7.43;4.90;;;17.50;99.90;;;;;;4993819;28;20132;-71
2022/09/05 04:31:25;;;;;;;8.83;5.30;;;17.50;99.90;;;;;;4994317;28;20472;-71
2022/09/05 04:34:16;;;;;;;9.37;4.67;;;17.50;99.90;;;;;;4994064;28;20050;-71
2022/09/05 04:36:44;;;;;;;7.00;4.97;;;17.40;99.90;;;;;;4994524;28;20443;-71
2022/09/05 04:39:18;;;;;;;6.03;4.63;;;17.40;99.90;;;;;;4993749;28;20083;-71
2022/09/05 04:42:00;;;;;;;7.47;5.10;;;17.40;99.90;;;;;;4993680;28;20096;-71
2022/09/05 04:44:42;;;;;;;8.73;5.30;;;17.40;99.90;;;;;;4994529;28;20112;-72
2022/09/05 04:47:26;;;;;;;9.23;4.93;;;17.40;99.90;;;;;;4994224;28;20086;-72
2022/09/05 04:50:03;;;;;;;7.83;5.20;;;17.40;99.90;;;;;;4993628;28;20046;-72
2022/09/05 04:52:53;;;;;;;8.23;5.23;;;17.40;99.90;;;;;;4993232;28;20398;-72
2022/09/05 04:55:25;;;;;;;6.47;5.23;;;17.40;99.90;;;;;;4993888;28;20486;-72
2022/09/05 04:58:06;;;;;;;6.57;5.00;;;17.30;99.90;;;;;;4993787;28;20109;-72
2022/09/05 05:01:23;;;;;;;12.30;6.03;;;17.30;99.90;;;;;;4993551;28;20050;-72
2022/09/05 05:03:49;;;;;;;6.60;5.40;;;17.30;99.90;;;;;;4968299;28;20061;-72
2022/09/05 05:06:24;;;;;;;7.97;5.30;;;17.30;99.90;;;;;;4994451;28;20129;-71
2022/09/05 05:08:58;;;;;;;7.63;5.33;;;17.30;99.90;;;;;;4997027;28;20050;-72
2022/09/05 05:11:42;;;;;;;9.88;5.53;;;17.30;99.90;;;;;;4995906;28;20058;-72
2022/09/05 05:14:24;;;;;;;9.47;5.97;;;17.30;99.90;;;;;;4996941;28;20081;-71
2022/09/05 05:17:14;;;;;;;10.10;5.63;;;17.20;99.90;;;;;;4997216;28;20469;-70
2022/09/05 05:19:49;;;;;;;8.40;6.03;;;17.30;99.90;;;;;;4995943;28;20062;-73
2022/09/05 05:22:16;;;;;;;12.52;5.65;;;17.30;99.90;;;;;;4997091;28;20054;-71
2022/09/05 05:24:48;;;;;;;8.97;5.80;;;17.30;99.90;;;;;;4997059;28;20450;-72
2022/09/05 05:27:28;;;;;;;6.90;5.47;;;17.30;99.90;;;;;;4996780;28;20427;-72
2022/09/05 05:30:10;;;;;;;8.83;5.27;;;17.30;99.90;;;;;;4997238;28;20082;-70
2022/09/05 05:32:42;;;;;;;8.33;5.40;;;17.30;99.90;;;;;;4996741;28;20061;-70
2022/09/05 05:35:11;;;;;;;9.27;5.63;;;17.30;99.90;;;;;;4997446;28;20050;-70
2022/09/05 05:37:45;;;;;;;11.07;5.77;;;17.30;99.90;;;;;;4996497;28;20053;-72
2022/09/05 05:40:19;;;;;;;9.05;5.25;;;17.40;99.90;;;;;;4996240;28;20487;-74
2022/09/05 05:42:46;;;;;;;11.68;6.00;;;17.30;99.90;;;;;;4996111;28;20483;-74
2022/09/05 05:45:23;;;;;;;8.70;6.00;;;17.30;99.90;;;;;;4996949;28;20105;-74
2022/09/05 05:48:04;;;;;;;9.43;6.50;;;17.40;99.90;;;;;;4997239;28;20053;-72
2022/09/05 05:50:51;;;;;;;7.20;5.30;;;17.50;99.90;;;;;;4996692;28;20069;-72
2022/09/05 05:54:11;;;;;;;9.63;6.03;;;17.50;99.90;;;;;;4996912;28;20418;-72
2022/09/05 05:57:01;;;;;;;11.57;5.63;;;17.60;99.90;;;;;;4936027;29;20523;-72
2022/09/05 05:59:49;;;;;;;9.87;6.30;;;17.60;99.90;;;;;;4994048;28;20058;-72
2022/09/05 06:02:51;;;;;;;7.50;5.73;;;17.60;99.90;;;;;;4995841;28;20046;-72
2022/09/05 06:05:34;;;;;;;8.40;6.17;;;17.70;99.90;;;;;;4996654;28;20121;-72
2022/09/05 06:08:32;;;;;;;7.07;5.70;;;17.80;99.90;;;;;;4996340;28;20062;-72
2022/09/05 06:11:03;;;;;;;8.20;5.97;;;17.90;99.90;;;;;;4996571;28;20054;-72
2022/09/05 06:13:57;;;;;;;10.83;5.00;;;18.30;99.90;;;;;;4995797;28;20105;-72
2022/09/05 06:16:48;;;;;;;8.77;5.63;;;19.50;99.90;;;;;;4995926;28;20096;-72
2022/09/05 06:19:35;;;;;;;9.47;5.73;;;20.90;99.70;;;;;;4995117;28;20112;-72
2022/09/05 06:22:00;;;;;;;9.47;4.83;;;22.10;94.90;;;;;;4995066;28;20157;-71
2022/09/05 06:24:52;;;;;;;9.60;5.97;;;23.20;93.50;;;;;;4995695;28;20189;-72
2022/09/05 06:27:30;;;;;;;7.23;5.17;;;24.40;77.20;;;;;;4996501;28;20054;-70
2022/09/05 06:30:07;;;;;;;7.37;5.57;;;24.70;76.50;;;;;;4995527;28;20046;-70
2022/09/05 06:33:04;;;;;;;10.17;5.90;;;25.50;72.50;;;;;;4995648;28;20042;-70
2022/09/05 06:35:52;;;;;;;12.33;5.57;;;25.60;71.00;;;;;;4995810;28;20046;-69
2022/09/05 06:38:36;;;;;;;9.17;5.50;;;26.00;72.30;;;;;;4996047;28;20371;-71
2022/09/05 06:41:28;;;;;;;7.60;5.28;;;26.40;66.20;;;;;;4995485;28;20149;-71
2022/09/05 06:44:41;;;;;;;7.80;5.47;;;26.50;60.90;;;;;;4967779;28;20046;-70
2022/09/05 06:47:17;;;;;;;9.83;5.10;;;26.80;61.70;;;;;;4982048;28;20055;-70
2022/09/05 06:50:00;;;;;;;7.07;5.80;;;;;;;;;;4996082;28;20053;-70
2022/09/05 06:52:32;;;;;;;7.60;5.20;;;;;;;;;;4995725;28;20481;-70
2022/09/05 06:54:58;;;;;;;6.57;4.73;;;;;;;;;;4995798;28;20124;-70
2022/09/05 06:57:47;;;;;;;6.97;5.27;;;;;;;;;;4995330;28;20046;-71
2022/09/05 07:00:22;;;;;;;10.63;5.17;;;;;;;;;;4995059;28;20056;-70
2022/09/05 07:03:07;;;;;;;7.17;5.10;;;;;;;;;;4994899;28;20046;-70
2022/09/05 07:05:45;;;;;;;6.47;4.83;;;;;;;;;;4994960;28;20050;-71
2022/09/05 07:08:43;;;;;;;9.60;5.20;;;29.00;52.60;;;;;;4995345;28;20054;-70
2022/09/05 07:11:39;;;;;;;7.70;4.67;;;29.40;61.30;;;;;;4995152;28;20400;-70
2022/09/05 07:14:14;;;;;;;8.70;4.70;;;29.90;50.40;;;;;;4995263;28;20054;-71
2022/09/05 07:17:04;;;;;;;9.63;5.10;;;30.50;50.20;;;;;;4994765;28;20054;-71
2022/09/05 07:19:51;;;;;;;7.53;4.50;;;30.70;49.30;;;;;;4994874;28;20046;-71
2022/09/05 07:22:32;;;;;;;5.80;4.70;;;30.60;49.60;;;;;;4995625;28;20046;-71
2022/09/05 07:25:06;;;;;;;7.70;4.72;;;30.80;49.90;;;;;;4993894;28;20445;-71
2022/09/05 07:27:48;;;;;;;9.20;5.15;;;30.90;48.70;;;;;;4994541;28;20051;-71
2022/09/05 07:30:17;;;;;;;8.88;4.97;;;31.20;47.80;;;;;;4994697;28;20082;-71
2022/09/05 07:32:46;;;;;;;7.22;5.15;;;31.30;48.50;;;;;;4994365;28;20053;-71
2022/09/05 07:35:29;;;;;;;7.40;4.80;;;31.10;48.60;;;;;;4994334;28;20402;-71
2022/09/05 07:38:12;;;;;;;7.57;4.97;;;31.20;47.50;;;;;;4994364;28;20436;-72
2022/09/05 07:40:50;;;;;;;7.50;4.68;;;31.10;48.00;;;;;;4994326;28;20133;-71
2022/09/05 07:43:22;;;;;;;7.88;4.88;;;;;;;;;;4994540;28;20408;-71
2022/09/05 07:46:22;;;;;;;6.63;5.05;;;30.60;47.70;;;;;;4994533;28;20053;-71
2022/09/05 07:49:13;;;;;;;7.38;4.50;;;30.30;48.60;;;;;;4993228;28;20510;-71
2022/09/05 07:51:52;;;;;;;6.25;4.80;;;29.90;48.80;;;;;;4994211;28;20057;-71
2022/09/05 07:54:23;;;;;;;8.32;4.80;;;;;;;;;;4993253;28;20143;-71
2022/09/05 07:56:58;;;;;;;7.97;5.63;;;28.70;50.90;;;;;;4994252;28;20094;-71
2022/09/05 07:59:28;;;;;;;7.00;4.93;;;28.20;52.50;;;;;;4994050;28;20081;-72
2022/09/05 08:01:55;;;;;;;9.52;5.40;;;27.80;52.80;;;;;;4994062;28;20066;-72
2022/09/05 08:04:41;;;;;;;10.07;5.35;;;27.30;53.60;;;;;;4993937;28;20046;-72
2022/09/05 08:07:12;;;;;;;9.15;5.57;;;27.00;54.60;;;;;;4994034;28;20038;-72
2022/09/05 08:09:48;;;;;;;7.63;4.68;;;26.80;55.50;;;;;;4993976;28;20076;-72
2022/09/05 08:12:32;;;;;;;12.70;5.43;;;26.60;56.60;;;;;;4994763;28;20054;-72
2022/09/05 08:15:10;;;;;;;6.95;5.18;;;26.40;57.70;;;;;;4994574;28;20162;-71
2022/09/05 08:18:04;;;;;;;8.60;6.07;;;26.20;57.70;;;;;;4993907;28;20082;-71
2022/09/05 08:20:54;;;;;;;7.85;5.82;;;26.00;58.50;;;;;;4963484;28;20058;-71
2022/09/05 08:23:29;;;;;;;9.20;5.23;;;25.90;60.10;;;;;;4994073;28;20482;-71
2022/09/05 08:26:08;;;;;;;7.95;5.57;;;25.80;59.40;;;;;;4993964;28;20081;-71
2022/09/05 08:28:49;;;;;;;11.73;5.53;;;25.80;60.10;;;;;;4993920;28;20054;-71
2022/09/05 08:31:44;;;;;;;8.43;5.20;;;25.90;60.50;;;;;;4994061;28;20054;-71
2022/09/05 08:34:35;;;;;;;8.10;5.50;;;25.90;61.50;;;;;;4985552;28;20062;-71
2022/09/05 08:37:02;;;;;;;8.50;5.40;;;25.90;61.80;;;;;;4993790;28;20137;-71
2022/09/05 08:39:31;;;;;;;10.27;5.57;;;25.80;61.90;;;;;;4993726;28;20043;-71
2022/09/05 08:42:11;;;;;;;8.13;5.50;;;25.80;62.20;;;;;;4996383;28;20448;-71
2022/09/05 08:44:47;;;;;;;7.23;5.33;;;25.70;63.50;;;;;;4996317;28;20058;-71
2022/09/05 08:47:40;;;;;;;7.77;5.07;;;25.70;63.30;;;;;;4998341;28;20054;-71
2022/09/05 08:50:24;;;;;;;9.60;5.17;;;25.70;64.30;;;;;;4997775;28;20398;-71
2022/09/05 08:53:04;;;;;;;7.63;5.40;;;25.50;64.80;;;;;;4997959;28;20113;-71
2022/09/05 08:55:56;;;;;;;9.57;5.80;;;25.50;66.00;;;;;;4997553;28;20062;-71
2022/09/05 08:58:33;;;;;;;8.50;5.10;;;25.60;65.10;;;;;;4994138;28;20054;-71
2022/09/05 09:01:12;;;;;;;10.00;4.97;;;25.60;65.60;;;;;;4997294;28;20141;-71
2022/09/05 09:03:49;;;;;;;6.73;5.37;;;25.70;66.70;;;;;;4997185;28;20086;-71
2022/09/05 09:06:23;;;;;;;8.63;5.27;;;25.60;66.40;;;;;;4997156;28;20047;-71
2022/09/05 09:09:08;;;;;;;6.63;5.13;;;25.60;66.80;;;;;;4997182;28;20105;-71
2022/09/05 09:11:42;;;;;;;8.27;4.63;;;25.60;66.60;;;;;;4997141;28;20046;-71
2022/09/05 09:14:34;;;;;;;9.23;5.07;;;25.60;66.90;;;;;;4997574;28;20042;-71
2022/09/05 09:17:12;;;;;;;8.77;4.83;;;25.70;67.50;;;;;;4996963;28;20057;-71
2022/09/05 09:19:45;;;;;;;7.57;4.60;;;25.80;67.50;;;;;;4997518;28;20053;-71
2022/09/05 09:22:32;;;;;;;7.65;5.05;;;25.90;67.20;;;;;;4996552;28;20057;-72
2022/09/05 09:25:06;;;;;;;10.97;5.37;;;25.90;66.80;;;;;;4997091;28;20046;-72
2022/09/05 09:28:01;;;;;;;9.57;5.38;;;26.00;66.90;;;;;;4997276;28;20394;-71
2022/09/05 09:30:29;;;;;;;10.55;5.00;;;26.00;67.30;;;;;;4991207;28;20050;-71
2022/09/05 09:33:01;;;;;;;6.57;4.23;;;26.10;66.80;;;;;;4995687;28;20055;-72
2022/09/05 09:35:52;;;;;;;6.67;4.50;;;26.10;67.10;;;;;;4996060;28;20046;-71
2022/09/05 09:38:21;;;;;;;10.67;5.17;;;26.20;66.60;;;;;;4996848;28;20046;-72
2022/09/05 09:41:00;;;;;;;8.80;5.23;;;26.20;66.30;;;;;;4997227;28;20073;-72
2022/09/05 09:43:38;;;;;;;10.47;4.57;;;26.30;66.70;;;;;;4996974;28;20038;-71
2022/09/05 09:46:19;;;;;;;6.20;4.30;;;26.30;66.80;;;;;;4995739;28;20057;-71
2022/09/05 09:48:54;;;;;;;7.23;4.67;;;26.30;66.50;;;;;;4996157;28;20487;-71
2022/09/05 09:51:26;;;;;;;7.63;4.50;;;26.30;66.40;;;;;;4997075;28;20062;-72
2022/09/05 09:53:56;;;;;;;12.93;4.27;;;26.30;66.20;;;;;;4996334;28;20046;-71
2022/09/05 09:56:53;;;;;;;8.57;4.30;;;26.40;66.60;;;;;;4996241;28;20058;-71
2022/09/05 09:59:37;;;;;;;8.70;3.93;;;26.40;66.80;;;;;;4996700;28;20054;-72
2022/09/05 10:02:14;;;;;;;6.75;4.03;;;26.50;66.80;;;;;;4996396;28;20054;-71
2022/09/05 10:05:07;;;;;;;7.53;3.90;;;26.50;67.10;;;;;;4996432;28;20050;-72
2022/09/05 10:07:42;;;;;;;9.77;4.63;;;;;;;;;;4996111;28;20118;-71
2022/09/05 10:10:31;;;;;;;6.40;4.23;;;26.70;77.60;;;;;;4996021;28;20475;-71
2022/09/05 10:13:08;;;;;;;8.37;3.27;;;26.70;65.30;;;;;;4996272;28;20054;-71
2022/09/05 10:16:09;;;;;;;9.60;3.70;;;26.80;65.20;;;;;;4995880;28;20050;-71
2022/09/05 10:19:11;;;;;;;4.90;3.40;;;26.90;66.30;;;;;;4996102;28;20160;-72
2022/09/05 10:21:51;;;;;;;8.70;3.43;;;26.90;65.00;;;;;;4995499;28;20384;-72
2022/09/05 10:24:30;;;;;;;6.73;3.60;;;26.90;64.90;;;;;;4996492;28;20093;-71
2022/09/05 10:27:29;;;;;;;8.63;3.87;;;26.90;65.30;;;;;;4995338;28;20100;-71
2022/09/05 10:30:08;;;;;;;6.03;3.80;;;27.00;65.20;;;;;;4995628;28;20053;-71
2022/09/05 10:32:53;;;;;;;7.23;3.07;;;26.90;64.70;;;;;;4995575;28;20050;-71
2022/09/05 10:35:32;;;;;;;6.57;2.83;;;26.90;64.30;;;;;;4995757;28;20082;-71
2022/09/05 10:38:17;;;;;;;5.00;2.90;;;26.90;63.70;;;;;;4996028;28;20046;-72
2022/09/05 10:40:50;;;;;;;5.87;3.10;;;27.00;63.60;;;;;;4996158;28;20046;-72
2022/09/05 10:43:29;;;;;;;9.57;3.13;;;27.00;63.10;;;;;;4995291;28;20038;-72
2022/09/05 10:45:55;;;;;;;6.57;3.30;;;27.10;63.00;;;;;;4996111;28;20050;-71
2022/09/05 10:48:45;;;;;;;5.87;3.20;;;27.10;62.60;;;;;;4995223;28;20391;-72
2022/09/05 10:51:33;;;;;;;6.77;3.63;;;27.10;62.30;;;;;;4995727;28;20042;-71
2022/09/05 10:54:25;;;;;;;6.90;3.20;;;27.10;62.50;;;;;;4995379;28;20478;-71
2022/09/05 10:57:06;;;;;;;5.30;2.80;;;27.00;62.20;;;;;;4995099;28;20046;-71
2022/09/05 10:59:55;;;;;;;4.90;2.83;;;26.90;61.90;;;;;;4995069;28;20505;-71
2022/09/05 11:02:27;;;;;;;5.30;2.40;;;27.00;61.70;;;;;;4995254;28;20065;-72
2022/09/05 11:05:21;;;;;;;5.93;2.57;;;27.00;62.00;;;;;;4994354;28;20086;-72
2022/09/05 11:08:06;;;;;;;6.65;2.67;;;27.00;61.90;;;;;;4995004;28;20058;-72
2022/09/05 11:10:59;;;;;;;8.43;3.33;;;27.00;61.10;;;;;;4995128;28;20496;-72
2022/09/05 11:13:45;;;;;;;6.63;2.77;;;27.10;61.10;;;;;;4987098;28;20053;-71
2022/09/05 11:16:44;;;;;;;5.33;3.00;;;27.10;60.10;;;;;;4994667;28;20113;-71
2022/09/05 11:19:27;;;;;;;4.60;2.30;;;27.20;60.90;;;;;;4977801;28;20054;-71
2022/09/05 11:22:02;;;;;;;6.63;2.70;;;27.20;60.60;;;;;;4995303;28;20149;-71
2022/09/05 11:24:54;;;;;;;4.73;2.33;;;27.20;60.40;;;;;;4994552;28;20129;-72
2022/09/05 11:27:20;;;;;;;3.97;2.20;;;27.20;59.70;;;;;;4994445;28;20094;-71
2022/09/05 11:29:49;;;;;;;6.77;2.10;;;27.10;59.80;;;;;;4994515;28;20092;-71
2022/09/05 11:33:00;;;;;;;6.63;2.63;;;27.00;59.90;;;;;;4994533;28;20050;-71
2022/09/05 11:36:01;;;;;;;4.70;2.33;;;27.00;59.90;;;;;;4991350;28;20105;-72
2022/09/05 11:39:07;;;;;;;5.40;2.67;;;27.10;59.50;;;;;;4994439;28;20046;-72
2022/09/05 11:41:48;;;;;;;5.83;2.80;;;27.10;59.40;;;;;;4994820;28;20050;-72
2022/09/05 11:44:39;;;;;;;4.70;2.60;;;27.10;58.70;;;;;;4993318;28;20050;-72
2022/09/05 11:47:31;;;;;;;6.20;2.43;;;27.20;59.10;;;;;;4994327;28;20056;-71
2022/09/05 11:50:20;;;;;;;4.67;2.27;;;27.20;58.80;;;;;;4994257;28;20057;-72
2022/09/05 11:53:15;;;;;;;5.20;2.30;;;27.30;58.80;;;;;;4994248;28;20046;-71
2022/09/05 11:56:02;;;;;;;3.38;2.10;;;27.20;57.80;;;;;;4994193;28;20058;-72
2022/09/05 11:58:47;;;;;;;4.90;2.00;;;27.30;57.90;;;;;;4994156;28;20098;-72
2022/09/05 12:01:42;;;;;;;5.05;2.70;;;27.30;57.30;;;;;;4994114;28;20050;-71
2022/09/05 12:04:37;;;;;;;7.70;2.60;;;27.40;58.20;;;;;;4994542;28;20043;-71
2022/09/05 12:07:13;;;;;;;4.32;2.65;;;27.40;58.50;;;;;;4992921;28;20050;-71
2022/09/05 12:10:02;;;;;;;9.93;2.80;;;27.40;58.10;;;;;;4994369;28;20046;-71
2022/09/05 12:12:35;;;;;;;4.90;2.63;;;27.40;57.60;;;;;;4994321;28;20054;-71
2022/09/05 12:15:36;;;;;;;5.43;2.30;;;27.50;59.00;;;;;;4994681;28;20490;-71
2022/09/05 12:18:26;;;;;;;6.03;2.20;;;27.50;57.40;;;;;;4998510;28;20125;-71
2022/09/05 12:21:11;;;;;;;5.90;2.43;;;27.50;56.20;;;;;;4997488;28;20532;-71
2022/09/05 12:24:14;;;;;;;5.50;2.33;;;27.60;56.10;;;;;;4998275;28;20053;-71
2022/09/05 12:26:57;;;;;;;5.20;2.07;;;27.60;55.80;;;;;;4997800;28;20050;-71
2022/09/05 12:29:26;;;;;;;3.70;2.20;;;27.70;55.60;;;;;;4997009;28;20364;-71
2022/09/05 12:31:57;;;;;;;6.93;2.20;;;27.80;55.60;;;;;;4997552;28;20042;-71
2022/09/05 12:34:52;;;;;;;4.57;2.23;;;27.90;54.70;;;;;;4997357;28;20046;-71
2022/09/05 12:37:36;;;;;;;4.82;2.00;;;28.00;52.60;;;;;;4997531;28;20058;-71
2022/09/05 12:40:08;;;;;;;3.70;2.15;;;28.10;52.20;;;;;;4997402;28;20042;-71
2022/09/05 12:42:55;;;;;;;5.80;2.13;;;28.10;52.80;;;;;;4997349;28;20047;-71
2022/09/05 12:45:43;;;;;;;4.40;2.00;;;28.10;52.80;;;;;;4997573;28;20046;-71
2022/09/05 12:48:21;;;;;;;5.73;2.43;;;28.10;52.50;;;;;;4996688;28;20368;-71
2022/09/05 12:51:02;;;;;;;3.90;2.10;;;28.20;52.80;;;;;;4996257;28;20058;-71
2022/09/05 12:53:44;;;;;;;6.70;2.07;;;28.20;52.60;;;;;;4997433;28;20069;-71
2022/09/05 12:57:02;;;;;;;5.80;2.00;;;28.10;52.40;;;;;;4998231;28;20103;-71
2022/09/05 12:59:29;;;;;;;5.40;2.23;;;28.20;52.70;;;;;;4964142;28;20061;-71
2022/09/05 13:02:06;;;;;;;5.43;2.30;;;28.20;52.90;;;;;;4997260;28;20092;-71
2022/09/05 13:04:45;;;;;;;5.37;2.33;;;28.10;52.10;;;;;;4995652;28;20053;-71
2022/09/05 13:07:15;;;;;;;3.80;1.87;;;28.10;52.10;;;;;;4997210;28;20050;-71
2022/09/05 13:10:02;;;;;;;4.17;2.17;;;28.00;53.10;;;;;;4997417;28;20062;-71
2022/09/05 13:12:28;;;;;;;4.27;2.10;;;28.10;52.50;;;;;;4997066;28;20129;-71
2022/09/05 13:15:22;;;;;;;5.73;2.00;;;28.10;52.60;;;;;;4996974;28;20138;-71
2022/09/05 13:18:09;;;;;;;6.87;1.90;;;28.10;52.70;;;;;;4997563;28;20050;-71
2022/09/05 13:20:47;;;;;;;5.60;2.10;;;28.00;52.60;;;;;;4996583;28;20598;-71
2022/09/05 13:23:23;;;;;;;4.47;2.10;;;28.10;52.60;;;;;;4996529;28;20427;-71
2022/09/05 13:26:16;;;;;;;6.10;2.00;;;28.10;52.10;;;;;;4996380;28;20490;-71
2022/09/05 13:29:02;;;;;;;3.43;1.80;;;28.10;51.50;;;;;;4996294;28;20053;-71
2022/09/05 13:31:39;;;;;;;3.43;1.63;;;28.20;50.70;;;;;;4997229;28;20038;-71
2022/09/05 13:34:21;;;;;;;2.73;1.60;;;28.20;50.00;;;;;;4996278;28;20403;-71
2022/09/05 13:37:06;;;;;;;6.10;1.93;;;28.20;49.10;;;;;;4996604;28;20061;-71
2022/09/05 13:39:58;;;;;;;7.33;1.90;;;28.20;48.10;;;;;;4997353;28;20054;-71
2022/09/05 13:42:29;;;;;;;7.97;1.93;;;28.30;49.00;;;;;;4989107;28;20054;-71
2022/09/05 13:44:59;;;;;;;5.87;1.90;;;28.20;48.80;;;;;;4996799;28;20120;-71
2022/09/05 13:47:48;;;;;;;4.30;1.60;;;28.20;49.10;;;;;;4996591;28;20380;-71
2022/09/05 13:50:18;;;;;;;5.23;2.17;;;28.20;49.50;;;;;;4996822;28;20050;-71
2022/09/05 13:52:51;;;;;;;4.00;1.90;;;28.20;49.50;;;;;;4996322;28;20043;-71
2022/09/05 13:55:29;;;;;;;4.80;1.97;;;28.20;49.80;;;;;;4995073;28;20046;-71
2022/09/05 13:58:06;;;;;;;4.67;2.10;;;28.10;50.00;;;;;;4995899;28;20054;-71
2022/09/05 14:00:36;;;;;;;5.50;2.53;;;28.10;50.40;;;;;;4995659;28;20046;-71
2022/09/05 14:03:24;;;;;;;4.07;1.90;;;28.00;50.10;;;;;;4994519;28;20050;-71
2022/09/05 14:06:07;;;;;;;6.87;2.10;;;28.00;49.70;;;;;;4996083;28;20059;-71
2022/09/05 14:08:54;;;;;;;4.50;2.20;;;28.00;49.90;;;;;;4996120;28;20125;-71
2022/09/05 14:11:39;;;;;;;5.90;2.53;;;28.10;50.20;;;;;;4995278;28;20061;-71